MiSS Elizabeth — WDJ6743 — position and weather

sailwx.info

Track history (hours):
 
Tides and Currents Weather Stations Pressure Air Temp Water Temp Dewpoint Dewpoint Depression Visibility Wind Speed Wind Dir Waves Ship Positions

MiSS Elizabeth

Owner: Miss Elizabeth LLC, Miami Lakes, FL. More information available from US FCC via Universal Licensing System and Coast Guard Vessel Documentation Center.

Last reported at 2017-Nov-13 01:07 UTC. Time now 2017-Nov-20 00:27 UTC.
Position N 26°16' W 080°05'.

Length 29 m; draft 2 m.

Type: Pleasure craft. MMSI: 367999770.

Date/timePositionNaut miles runAvg speedWind from/ knotsBaromVisibWave heightAir tempDewpointWater temp
2017-Nov-13 01:07N 26°16' W 080°05'0 2.9
2017-Nov-13 01:01N 26°16' W 080°05'2 4.1
2017-Nov-13 00:27N 26°14' W 080°06'3 6.2
2017-Nov-13 00:00N 26°11' W 080°06'3 6.1
2017-Nov-12 23:30N 26°08' W 080°07'1 2.3
2017-Nov-12 22:58N 26°07' W 080°07'2 4.7
2017-Nov-12 22:30N 26°05' W 080°07'3 7.0
2017-Nov-12 22:00N 26°01' W 080°07'3 5.6
2017-Nov-12 21:30N 25°59' W 080°07'3 6.5
2017-Nov-12 21:00N 25°55' W 080°08'2 4.7
2017-Nov-12 20:30N 25°53' W 080°09'4 7.1
2017-Nov-12 20:01N 25°50' W 080°10'4 7.1
2017-Nov-12 19:30N 25°46' W 080°11'2 3.7
2017-Nov-12 19:00N 25°46' W 080°09'1 1.0
2017-Nov-12 18:30N 25°45' W 080°08'  
2017-Nov-08 18:23N 25°45' W 080°08'0 0.0
2017-Nov-08 18:00N 25°45' W 080°08'2 3.1
2017-Nov-08 17:30N 25°46' W 080°07'612.0
2017-Nov-08 17:00N 25°52' W 080°06'612.7
2017-Nov-08 16:30N 25°59' W 080°06'612.3
2017-Nov-08 16:00N 26°05' W 080°05'612.4
2017-Nov-08 15:30N 26°11' W 080°05'5 9.2
2017-Nov-08 14:59N 26°16' W 080°05'1 1.1
2017-Nov-08 14:28N 26°16' W 080°05'  
Track history (hours):
 
Tides and Currents Weather Stations Pressure Air Temp Water Temp Dewpoint Dewpoint Depression Visibility Wind Speed Wind Dir Waves Ship Positions

MiSS Elizabeth

Owner: Miss Elizabeth LLC, Miami Lakes, FL. More information available from US FCC via Universal Licensing System and Coast Guard Vessel Documentation Center.

Last reported at 2017-Nov-13 01:07 UTC. Time now 2017-Nov-20 00:27 UTC.
Position N 26°16' W 080°05'.

Length 29 m; draft 2 m.

Type: Pleasure craft. MMSI: 367999770.

Date/timePositionNaut miles runAvg speedWind from/ knotsBaromVisibWave heightAir tempDewpointWater temp
2017-Nov-13 01:07N 26°16' W 080°05'0 2.9
2017-Nov-13 01:01N 26°16' W 080°05'2 4.1
2017-Nov-13 00:27N 26°14' W 080°06'3 6.2
2017-Nov-13 00:00N 26°11' W 080°06'3 6.1
2017-Nov-12 23:30N 26°08' W 080°07'1 2.3
2017-Nov-12 22:58N 26°07' W 080°07'2 4.7
2017-Nov-12 22:30N 26°05' W 080°07'3 7.0
2017-Nov-12 22:00N 26°01' W 080°07'3 5.6
2017-Nov-12 21:30N 25°59' W 080°07'3 6.5
2017-Nov-12 21:00N 25°55' W 080°08'2 4.7
2017-Nov-12 20:30N 25°53' W 080°09'4 7.1
2017-Nov-12 20:01N 25°50' W 080°10'4 7.1
2017-Nov-12 19:30N 25°46' W 080°11'2 3.7
2017-Nov-12 19:00N 25°46' W 080°09'1 1.0
2017-Nov-12 18:30N 25°45' W 080°08'  
2017-Nov-08 18:23N 25°45' W 080°08'0 0.0
2017-Nov-08 18:00N 25°45' W 080°08'2 3.1
2017-Nov-08 17:30N 25°46' W 080°07'612.0
2017-Nov-08 17:00N 25°52' W 080°06'612.7
2017-Nov-08 16:30N 25°59' W 080°06'612.3
2017-Nov-08 16:00N 26°05' W 080°05'612.4
2017-Nov-08 15:30N 26°11' W 080°05'5 9.2
2017-Nov-08 14:59N 26°16' W 080°05'1 1.1
2017-Nov-08 14:28N 26°16' W 080°05'  

Dump ship's entire track history